Time;durP1;ratioP1;P1;durP2;ratioP2;P2;SDS_P1;SDS_P2;PMS_P1;PMS_P2;Temp;Humidity;BMP_temperature;BMP_pressure;BME280_temperature;BME280_humidity;BME280_pressure;Samples;Min_cycle;Max_cycle;Signal;HPM_P1;HPM_P2
2024/03/11 00:02:27;;;;;;;50.00;15.75;;;;;;;7.04;81.16;98721.53;5042371;28;20098;-46
2024/03/11 00:04:54;;;;;;;55.50;17.35;;;;;;;7.04;81.17;98724.13;5057558;28;20049;-46
2024/03/11 00:07:21;;;;;;;56.15;17.30;;;;;;;7.03;80.13;98717.25;5043489;28;20107;-47
2024/03/11 00:09:48;;;;;;;68.57;18.48;;;;;;;7.03;80.31;98719.84;5037966;28;20405;-46
2024/03/11 00:12:17;;;;;;;53.80;17.90;;;;;;;7.04;80.71;98718.97;5037898;28;20057;-47
2024/03/11 00:14:47;;;;;;;32.00;10.52;;;;;;;7.02;80.96;98720.69;5027176;28;20122;-46
2024/03/11 00:17:14;;;;;;;56.80;18.95;;;;;;;7.01;81.53;98724.13;5024794;28;20052;-46
2024/03/11 00:19:41;;;;;;;51.72;16.38;;;;;;;7.00;81.75;98717.28;5029672;28;20046;-45
2024/03/11 00:22:08;;;;;;;59.75;18.02;;;;;;;7.00;81.83;98713.00;5027126;28;20045;-45
2024/03/11 00:24:35;;;;;;;43.42;13.55;;;;;;;6.98;80.35;98708.72;5029916;28;20050;-46
2024/03/11 00:27:07;;;;;;;56.78;18.10;;;;;;;6.99;81.62;98713.00;5028071;28;20049;-46
2024/03/11 00:29:35;;;;;;;47.70;15.00;;;;;;;6.96;81.84;98715.63;5029370;28;20060;-45
2024/03/11 00:32:02;;;;;;;36.28;14.23;;;;;;;6.91;81.14;98715.66;5025544;28;20045;-46
2024/03/11 00:34:29;;;;;;;53.47;17.15;;;;;;;6.91;81.99;98719.09;5027640;28;20053;-44
2024/03/11 00:36:56;;;;;;;44.30;15.45;;;;;;;6.90;81.94;98732.84;5022567;28;20060;-44
2024/03/11 00:39:23;;;;;;;48.28;16.60;;;;;;;6.90;80.39;98732.84;5027212;28;20421;-45
2024/03/11 00:41:51;;;;;;;44.65;16.08;;;;;;;6.89;80.42;98731.09;5022622;28;20052;-45
2024/03/11 00:44:22;;;;;;;47.42;15.30;;;;;;;6.88;81.53;98731.97;5025105;28;20142;-43
2024/03/11 00:46:49;;;;;;;38.72;14.15;;;;;;;6.86;81.03;98736.28;5027706;28;20049;-43
2024/03/11 00:49:19;;;;;;;53.88;18.80;;;;;;;6.86;80.79;98731.13;5026168;28;20045;-45
2024/03/11 00:51:46;;;;;;;57.13;15.95;;;;;;;6.85;82.04;98739.72;5026513;28;20564;-43
2024/03/11 00:54:13;;;;;;;52.05;16.33;;;;;;;6.84;82.22;98743.16;5029024;28;20052;-43
2024/03/11 00:56:39;;;;;;;34.85;12.77;;;;;;;6.82;81.88;98740.59;5028738;28;20088;-45
2024/03/11 00:59:06;;;;;;;44.65;13.55;;;;;;;6.82;82.24;98750.03;5029413;28;20128;-47
2024/03/11 01:01:33;;;;;;;50.72;17.52;;;;;;;6.83;81.81;98751.75;5028343;28;20045;-43
2024/03/11 01:04:00;;;;;;;49.53;16.85;;;;;;;6.82;82.23;98752.59;5026743;28;20053;-44
2024/03/11 01:06:27;;;;;;;45.80;16.60;;;;;;;6.82;81.38;98760.31;5025301;28;20071;-43
2024/03/11 01:08:54;;;;;;;41.95;14.43;;;;;;;6.82;81.02;98748.31;5031392;28;20088;-43
2024/03/11 01:11:23;;;;;;;41.92;14.93;;;;;;;6.82;81.75;98744.88;5026558;28;20060;-43
2024/03/11 01:13:49;;;;;;;34.97;13.85;;;;;;;6.79;81.91;98744.94;5027924;28;20075;-43
2024/03/11 01:16:16;;;;;;;41.38;14.57;;;;;;;6.76;81.19;98744.97;5028964;28;20080;-47
2024/03/11 01:18:45;;;;;;;37.75;13.20;;;;;;;6.74;81.78;98746.66;5027713;28;20041;-44
2024/03/11 01:21:13;;;;;;;43.25;14.25;;;;;;;6.74;82.04;98747.53;5027993;28;20053;-42
2024/03/11 01:23:40;;;;;;;43.28;14.38;;;;;;;6.75;81.41;98748.41;5027586;28;20064;-45
2024/03/11 01:26:07;;;;;;;35.72;12.70;;;;;;;6.72;81.25;98744.09;5027469;28;20054;-45
2024/03/11 01:28:34;;;;;;;38.70;14.50;;;;;;;6.73;82.02;98739.81;5028173;28;20061;-47
2024/03/11 01:31:04;;;;;;;39.63;13.82;;;;;;;6.72;81.85;98748.41;5028140;28;20084;-43
2024/03/11 01:33:31;;;;;;;39.38;14.25;;;;;;;6.71;82.86;98751.84;5027740;28;20054;-45
2024/03/11 01:35:59;;;;;;;28.05;9.80;;;;;;;6.67;81.41;98757.03;5028667;28;20053;-46
2024/03/11 01:38:26;;;;;;;31.10;11.13;;;;;;;6.67;81.80;98757.03;5029409;28;20060;-44
2024/03/11 01:40:53;;;;;;;42.15;13.32;;;;;;;6.65;82.61;98763.91;5028275;28;20053;-46
2024/03/11 01:43:20;;;;;;;42.83;13.48;;;;;;;6.68;82.38;98763.88;5027393;28;20053;-42
2024/03/11 01:45:46;;;;;;;27.10;9.68;;;;;;;6.63;81.57;98757.94;5028367;28;20067;-45
2024/03/11 01:48:13;;;;;;;27.65;10.82;;;;;;;6.65;82.34;98763.03;5024639;28;20057;-43
2024/03/11 01:50:40;;;;;;;32.25;12.90;;;;;;;6.62;81.81;98763.91;5023164;28;20056;-45
2024/03/11 01:53:09;;;;;;;29.42;12.15;;;;;;;6.63;82.43;98767.34;5022486;28;20049;-46
2024/03/11 01:55:37;;;;;;;31.83;11.52;;;;;;;6.62;81.91;98763.09;5026750;28;20057;-44
2024/03/11 01:58:06;;;;;;;23.73;9.73;;;;;;;6.58;82.22;98775.09;5027468;28;20533;-42
2024/03/11 02:00:37;;;;;;;28.42;11.27;;;;;;;6.59;82.33;98779.41;5034457;28;20056;-46
2024/03/11 02:03:07;;;;;;;28.67;11.75;;;;;;;6.60;83.52;98781.09;5047940;28;20076;-48
2024/03/11 02:05:40;;;;;;;29.25;11.15;;;;;;;6.60;83.47;98783.66;5048651;28;20045;-44
2024/03/11 02:08:08;;;;;;;38.10;13.10;;;;;;;6.60;83.20;98786.25;5040980;28;20045;-45
2024/03/11 02:10:36;;;;;;;25.17;10.32;;;;;;;6.60;83.34;98788.81;5039303;28;20049;-48
2024/03/11 02:13:04;;;;;;;30.77;11.02;;;;;;;6.59;82.49;98796.53;5046109;28;20129;-45
2024/03/11 02:15:30;;;;;;;25.00;9.45;;;;;;;6.60;82.02;98796.53;5043458;28;20044;-49
2024/03/11 02:17:57;;;;;;;32.35;11.93;;;;;;;6.60;81.83;98799.09;5046634;28;20060;-43
2024/03/11 02:20:26;;;;;;;27.48;11.55;;;;;;;6.56;82.95;98800.00;5046110;28;20064;-45
2024/03/11 02:22:56;;;;;;;30.13;12.02;;;;;;;6.57;82.56;98796.53;5045307;28;20502;-43
2024/03/11 02:25:26;;;;;;;26.45;9.90;;;;;;;6.57;81.92;98791.41;5044463;28;20052;-46
2024/03/11 02:27:57;;;;;;;33.15;11.93;;;;;;;6.56;82.53;98794.84;5042198;28;20049;-45
2024/03/11 02:30:24;;;;;;;21.20;8.45;;;;;;;6.55;83.26;98788.84;5045328;28;20049;-49
2024/03/11 02:32:52;;;;;;;28.27;10.15;;;;;;;6.53;83.18;98794.88;5038941;28;20457;-45
2024/03/11 02:35:20;;;;;;;25.27;9.77;;;;;;;6.54;83.25;98788.84;5042609;28;20048;-45
2024/03/11 02:37:48;;;;;;;23.85;9.70;;;;;;;6.54;83.43;98789.72;5040860;28;20049;-46
2024/03/11 02:40:18;;;;;;;28.10;10.60;;;;;;;6.55;82.96;98787.97;5047695;28;20425;-44
2024/03/11 02:42:45;;;;;;;;;;;;;;;6.46;82.68;98788.03;5040660;28;20055;-44
2024/03/11 02:45:14;;;;;;;21.95;9.27;;;;;;;6.49;82.91;98788.03;5040393;28;19927;-42
2024/03/11 02:47:41;;;;;;;19.92;8.75;;;;;;;6.46;82.73;98794.06;5034190;28;20057;-45
2024/03/11 02:50:09;;;;;;;20.88;7.57;;;;;;;6.48;82.36;98797.44;5045258;28;20079;-44
2024/03/11 02:52:37;;;;;;;21.27;9.27;;;;;;;6.46;83.35;98793.19;5047332;28;20502;-43
2024/03/11 02:55:05;;;;;;;28.67;10.02;;;;;;;6.48;82.47;98788.91;5052373;28;20084;-46
2024/03/11 02:57:33;;;;;;;29.55;10.55;;;;;;;6.50;83.83;98779.44;5062191;28;20049;-45
2024/03/11 02:59:59;;;;;;;26.83;11.00;;;;;;;6.50;82.84;98784.59;5044557;28;20048;-46
2024/03/11 03:02:27;;;;;;;24.98;10.00;;;;;;;6.50;82.74;98779.44;5037493;28;20045;-45
2024/03/11 03:04:55;;;;;;;23.40;10.10;;;;;;;6.47;82.36;98784.59;5046003;28;20103;-42
2024/03/11 03:07:25;;;;;;;29.38;10.55;;;;;;;6.46;84.12;98783.75;5020775;28;20413;-48
2024/03/11 03:09:52;;;;;;;25.30;8.98;;;;;;;6.45;82.53;98781.19;5061209;28;20056;-43
2024/03/11 03:12:20;;;;;;;27.67;11.15;;;;;;;6.45;83.32;98788.91;5045983;28;20071;-44
2024/03/11 03:14:47;;;;;;;33.42;12.18;;;;;;;6.45;82.23;98789.75;5046184;28;20049;-45
2024/03/11 03:17:14;;;;;;;24.55;9.68;;;;;;;6.45;82.43;98784.59;5041690;28;20095;-44
2024/03/11 03:19:41;;;;;;;34.28;13.73;;;;;;;6.48;83.08;98789.75;5041872;28;20704;-47
2024/03/11 03:22:07;;;;;;;29.77;10.70;;;;;;;6.44;84.27;98785.47;5046035;28;20059;-43
2024/03/11 03:24:34;;;;;;;27.15;11.32;;;;;;;6.47;83.08;98784.59;5049065;28;20114;-43
2024/03/11 03:27:01;;;;;;;36.38;13.70;;;;;;;6.46;83.78;98790.63;5044586;28;20068;-46
2024/03/11 03:29:30;;;;;;;30.77;12.90;;;;;;;6.48;83.21;98796.63;5049069;28;20107;-44
2024/03/11 03:31:57;;;;;;;28.45;11.25;;;;;;;6.47;83.26;98790.59;5043012;28;20104;-45
2024/03/11 03:34:25;;;;;;;32.72;11.80;;;;;;;6.49;83.11;98794.00;5042145;28;20049;-45
2024/03/11 03:36:51;;;;;;;35.22;12.43;;;;;;;6.45;83.97;98792.31;5048208;28;20059;-44
2024/03/11 03:39:18;;;;;;;36.92;12.70;;;;;;;6.48;84.25;98802.59;5048599;28;20056;-43
2024/03/11 03:41:45;;;;;;;33.25;12.50;;;;;;;6.47;83.09;98800.03;5052712;28;20049;-45
2024/03/11 03:44:12;;;;;;;39.67;14.07;;;;;;;6.48;82.85;98805.16;5045799;28;20057;-45
2024/03/11 03:46:40;;;;;;;46.65;13.88;;;;;;;6.47;83.30;98800.03;5044334;28;20049;-42
2024/03/11 03:49:07;;;;;;;40.85;15.23;;;;;;;6.47;84.39;98805.19;5049576;28;20103;-45
2024/03/11 03:51:34;;;;;;;31.73;12.23;;;;;;;6.45;83.59;98812.91;5050415;28;20056;-46
2024/03/11 03:54:01;;;;;;;34.78;11.95;;;;;;;6.47;83.49;98820.63;5050159;28;20143;-44
2024/03/11 03:56:29;;;;;;;28.13;9.27;;;;;;;6.42;83.33;98818.91;5049919;28;20468;-43
2024/03/11 03:58:56;;;;;;;42.50;15.07;;;;;;;6.46;84.35;98829.19;5051757;28;20448;-43
2024/03/11 04:01:23;;;;;;;40.45;12.85;;;;;;;6.43;83.58;98830.91;5057726;28;20127;-46
2024/03/11 04:03:50;;;;;;;40.10;14.23;;;;;;;6.47;83.66;98841.19;5052773;28;20057;-46
2024/03/11 04:06:17;;;;;;;46.47;14.38;;;;;;;6.48;83.61;98832.63;5050465;28;20053;-46
2024/03/11 04:08:44;;;;;;;43.92;13.95;;;;;;;6.50;84.34;98846.31;5035147;28;20079;-45
2024/03/11 04:11:11;;;;;;;33.65;12.15;;;;;;;6.49;83.66;98847.19;5049179;28;20167;-45
2024/03/11 04:13:38;;;;;;;34.50;13.18;;;;;;;6.50;84.04;98848.91;5053601;28;20053;-48
2024/03/11 04:16:07;;;;;;;47.83;13.25;;;;;;;6.51;82.55;98854.03;5048908;28;20057;-46
2024/03/11 04:18:34;;;;;;;35.65;12.98;;;;;;;6.52;82.62;98849.75;5054106;28;20049;-43
2024/03/11 04:21:05;;;;;;;28.40;10.48;;;;;;;6.42;83.87;98849.78;5055289;28;20048;-43
2024/03/11 04:23:32;;;;;;;40.35;13.95;;;;;;;6.48;84.42;98848.06;5050455;28;20047;-46
2024/03/11 04:26:01;;;;;;;35.10;13.20;;;;;;;6.47;82.80;98852.34;5049756;28;20450;-45
2024/03/11 04:28:28;;;;;;;30.23;9.80;;;;;;;6.45;83.54;98858.38;5048378;28;20052;-44
2024/03/11 04:30:55;;;;;;;42.00;13.93;;;;;;;6.46;83.62;98853.22;5058538;28;20055;-45
2024/03/11 04:33:22;;;;;;;42.30;13.80;;;;;;;6.46;84.40;98849.78;5052168;28;20044;-43
2024/03/11 04:35:49;;;;;;;41.35;12.95;;;;;;;6.45;83.31;98850.66;5050558;28;20463;-46
2024/03/11 04:38:17;;;;;;;38.65;13.13;;;;;;;6.45;84.64;98858.38;5049444;28;20135;-46
2024/03/11 04:40:47;;;;;;;44.60;14.45;;;;;;;6.46;84.18;98858.34;5053709;28;20635;-43
2024/03/11 04:43:14;;;;;;;31.98;13.10;;;;;;;6.45;84.17;98864.34;5054474;28;20045;-45
2024/03/11 04:45:40;;;;;;;44.08;14.73;;;;;;;6.46;84.73;98870.34;5053382;28;20040;-44
2024/03/11 04:48:09;;;;;;;44.72;14.95;;;;;;;6.48;83.92;98871.22;5054467;28;20118;-43
2024/03/11 04:50:38;;;;;;;31.67;11.32;;;;;;;6.42;83.34;98875.50;5053227;28;20049;-43
2024/03/11 04:53:09;;;;;;;47.30;14.18;;;;;;;6.47;83.84;98872.06;5046231;28;20048;-44
2024/03/11 04:55:36;;;;;;;42.45;14.93;;;;;;;6.47;84.17;98882.34;5045181;28;20068;-44
2024/03/11 04:58:04;;;;;;;37.47;13.18;;;;;;;6.49;83.57;98880.63;5054243;28;20425;-44
2024/03/11 05:00:31;;;;;;;34.08;10.45;;;;;;;6.46;83.09;98875.50;5032626;28;20047;-46
2024/03/11 05:03:00;;;;;;;47.85;14.90;;;;;;;6.48;83.31;98886.66;5050018;28;20084;-44
2024/03/11 05:05:31;;;;;;;36.70;11.27;;;;;;;6.47;83.08;98890.06;5034160;28;20049;-45
2024/03/11 05:07:59;;;;;;;43.05;15.73;;;;;;;6.49;83.16;98890.94;5032758;28;20051;-46
2024/03/11 05:10:26;;;;;;;34.08;13.55;;;;;;;6.46;84.23;98896.06;5051990;28;20144;-46
2024/03/11 05:12:53;;;;;;;35.00;10.00;;;;;;;6.40;84.98;98900.41;5053877;28;20049;-45
2024/03/11 05:15:21;;;;;;;35.45;13.48;;;;;;;6.45;84.49;98902.94;5050778;28;20056;-43
2024/03/11 05:17:49;;;;;;;38.00;11.98;;;;;;;6.45;84.06;98899.53;5050677;28;20095;-47
2024/03/11 05:20:18;;;;;;;40.85;14.82;;;;;;;6.47;84.84;98908.06;5047459;28;20499;-44
2024/03/11 05:22:47;;;;;;;40.08;12.93;;;;;;;6.48;84.01;98909.81;5035580;28;20052;-48
2024/03/11 05:25:14;;;;;;;37.92;14.27;;;;;;;6.49;83.06;98916.66;5048860;28;21503;-49
2024/03/11 05:27:46;;;;;;;47.75;13.88;;;;;;;6.49;84.00;98921.78;5048007;28;20051;-47
2024/03/11 05:30:14;;;;;;;34.80;12.95;;;;;;;6.48;83.57;98922.66;5050794;28;20530;-45
2024/03/11 05:32:41;;;;;;;36.70;13.05;;;;;;;6.48;84.70;98922.66;5049308;28;20037;-46
2024/03/11 05:35:08;;;;;;;28.85;10.82;;;;;;;6.46;83.59;98938.09;5048049;28;20088;-44
2024/03/11 05:37:35;;;;;;;35.50;13.68;;;;;;;6.50;83.66;98933.78;5060555;28;20063;-47
2024/03/11 05:40:05;;;;;;;32.38;11.68;;;;;;;6.50;83.87;98933.78;5046659;28;20071;-47
2024/03/11 05:42:33;;;;;;;39.20;14.27;;;;;;;6.53;83.04;98949.22;5028702;28;20123;-43
2024/03/11 05:45:02;;;;;;;39.60;14.23;;;;;;;6.55;84.24;98957.75;5054249;28;20084;-45
2024/03/11 05:47:29;;;;;;;36.53;13.68;;;;;;;6.54;83.99;98959.50;5066072;28;20053;-42
2024/03/11 05:49:56;;;;;;;33.67;10.05;;;;;;;6.54;82.72;98961.22;5047952;28;20058;-43
2024/03/11 05:52:26;;;;;;;35.10;11.38;;;;;;;6.57;83.54;98971.50;5052988;28;20048;-45
2024/03/11 05:54:53;;;;;;;36.67;12.20;;;;;;;6.58;83.47;98973.19;5049360;28;20049;-44
2024/03/11 05:57:25;;;;;;;35.92;12.05;;;;;;;6.57;83.38;98974.06;5054723;28;20103;-46
2024/03/11 05:59:52;;;;;;;35.20;12.30;;;;;;;6.58;83.66;98983.50;5046770;28;20091;-43
2024/03/11 06:02:20;;;;;;;35.92;13.70;;;;;;;6.59;84.25;98990.38;5031312;28;20722;-46
2024/03/11 06:04:47;;;;;;;17.85;8.38;;;;;;;6.58;83.05;98986.06;5051856;28;20049;-47
2024/03/11 06:07:22;;;;;;;26.05;11.35;;;;;;;6.60;83.68;98992.06;5048414;28;20052;-42
2024/03/11 06:09:51;;;;;;;32.83;12.95;;;;;;;6.60;83.42;98999.78;5043852;28;20045;-47
2024/03/11 06:12:21;;;;;;;35.30;12.18;;;;;;;6.61;83.28;98996.34;5051199;28;20073;-45
2024/03/11 06:14:49;;;;;;;35.42;11.68;;;;;;;6.63;82.93;99007.50;5058603;28;20148;-46
2024/03/11 06:17:16;;;;;;;38.13;14.13;;;;;;;6.63;83.35;99006.63;5047639;28;20180;-44
2024/03/11 06:19:44;;;;;;;37.35;14.05;;;;;;;6.63;82.12;99012.66;5053892;28;20048;-46
2024/03/11 06:22:15;;;;;;;36.35;12.15;;;;;;;6.62;82.46;99015.22;5047878;28;20056;-44
2024/03/11 06:24:42;;;;;;;42.70;13.40;;;;;;;6.64;83.36;99013.50;5035616;28;20052;-46
2024/03/11 06:27:08;;;;;;;32.45;12.13;;;;;;;6.65;82.77;99020.34;5045632;28;20059;-47
2024/03/11 06:29:35;;;;;;;36.72;11.88;;;;;;;6.64;83.55;99034.94;5047498;28;20044;-44
2024/03/11 06:32:05;;;;;;;35.30;12.23;;;;;;;6.65;82.85;99035.78;5046608;28;20080;-46
2024/03/11 06:34:34;;;;;;;29.35;11.15;;;;;;;6.64;83.58;99037.50;5050819;28;20123;-46
2024/03/11 06:37:02;;;;;;;31.15;9.85;;;;;;;6.61;82.57;99034.94;5049775;28;20052;-45
2024/03/11 06:39:31;;;;;;;25.83;10.15;;;;;;;6.62;83.15;99040.97;5034139;28;20505;-48
2024/03/11 06:41:59;;;;;;;39.90;12.20;;;;;;;6.62;82.79;99044.38;5051478;28;20056;-44
2024/03/11 06:44:27;;;;;;;37.13;11.43;;;;;;;6.63;82.63;99037.53;5047625;28;20116;-47
2024/03/11 06:47:14;;;;;;;40.45;12.93;;;;;;;6.63;83.66;99052.97;5044783;28;20049;-44
2024/03/11 06:49:42;;;;;;;42.60;11.68;;;;;;;6.64;82.24;99059.81;5046106;28;20152;-45
2024/03/11 06:52:09;;;;;;;42.05;12.93;;;;;;;6.65;83.63;99062.38;5045710;28;20059;-44
2024/03/11 06:54:36;;;;;;;33.47;9.00;;;;;;;6.62;82.25;99057.22;5051481;28;20644;-45
2024/03/11 06:57:05;;;;;;;39.67;13.52;;;;;;;6.62;83.25;99067.53;5048700;28;20127;-47
2024/03/11 06:59:33;;;;;;;31.33;11.32;;;;;;;6.62;82.83;99066.69;5028562;28;20045;-44
2024/03/11 07:02:00;;;;;;;39.55;12.90;;;;;;;6.63;82.26;99076.97;5044153;28;20052;-46
2024/03/11 07:04:27;;;;;;;42.55;13.75;;;;;;;6.64;83.08;99076.13;5049415;28;20045;-44
2024/03/11 07:06:53;;;;;;;36.35;12.38;;;;;;;6.64;82.55;99081.25;5053046;28;20052;-46
2024/03/11 07:09:21;;;;;;;36.97;12.45;;;;;;;6.64;83.20;99085.53;5047770;28;20056;-47
2024/03/11 07:11:48;;;;;;;35.25;12.00;;;;;;;6.65;81.87;99092.38;5052422;28;20052;-42
2024/03/11 07:14:15;;;;;;;35.58;13.50;;;;;;;6.64;83.19;99088.97;5045808;28;20099;-47
2024/03/11 07:16:42;;;;;;;33.92;11.95;;;;;;;6.63;83.00;99084.69;5044681;28;20045;-47
2024/03/11 07:19:10;;;;;;;39.25;14.48;;;;;;;6.64;81.79;99094.13;5049607;28;20047;-44
2024/03/11 07:21:37;;;;;;;39.58;12.73;;;;;;;6.64;83.53;99096.69;5065005;28;20049;-48
2024/03/11 07:24:05;;;;;;;34.75;12.93;;;;;;;6.62;82.08;99093.25;5048815;28;20056;-46
2024/03/11 07:26:32;;;;;;;37.50;13.70;;;;;;;6.62;81.78;99108.69;5050740;28;20049;-48
2024/03/11 07:28:58;;;;;;;40.55;11.30;;;;;;;6.61;82.57;99109.56;5047488;28;20806;-42
2024/03/11 07:31:25;;;;;;;28.95;9.52;;;;;;;6.61;83.01;99107.00;5048525;28;20761;-43
2024/03/11 07:33:54;;;;;;;39.55;12.35;;;;;;;6.53;82.28;99108.72;5053322;28;20080;-43
2024/03/11 07:36:21;;;;;;;35.30;11.88;;;;;;;6.57;83.36;99110.44;5047632;28;20103;-45
2024/03/11 07:38:48;;;;;;;35.33;10.90;;;;;;;6.55;82.75;99117.28;5053448;28;20453;-50
2024/03/11 07:41:15;;;;;;;40.33;13.30;;;;;;;6.57;82.81;99113.00;5049736;28;20409;-46
2024/03/11 07:43:42;;;;;;;25.45;9.75;;;;;;;6.57;81.98;99110.44;5049452;28;20064;-46
2024/03/11 07:46:11;;;;;;;32.72;10.80;;;;;;;6.56;82.67;99124.16;5045423;28;20050;-46
2024/03/11 07:48:39;;;;;;;32.28;10.85;;;;;;;6.58;82.81;99116.44;5049316;28;20126;-42
2024/03/11 07:51:07;;;;;;;33.63;13.38;;;;;;;6.59;83.78;99126.75;5046238;28;20060;-44
2024/03/11 07:53:35;;;;;;;37.92;12.35;;;;;;;6.57;82.22;99128.44;5055282;28;20529;-45
2024/03/11 07:56:03;;;;;;;32.50;10.02;;;;;;;6.60;82.69;99140.44;5053858;28;20055;-43
2024/03/11 07:58:34;;;;;;;22.90;8.02;;;;;;;6.57;83.16;99143.88;5043923;28;20044;-46
2024/03/11 08:01:02;;;;;;;18.95;8.38;;;;;;;6.56;83.47;99155.03;5056035;28;20041;-44
2024/03/11 08:03:29;;;;;;;22.88;7.82;;;;;;;6.55;82.70;99158.44;5032680;28;20041;-43
2024/03/11 08:05:58;;;;;;;30.63;10.73;;;;;;;6.59;82.81;99156.75;5052716;28;20075;-47
2024/03/11 08:08:25;;;;;;;32.22;12.48;;;;;;;6.58;84.01;99163.59;5044491;28;20085;-49
2024/03/11 08:10:53;;;;;;;30.13;10.77;;;;;;;6.56;83.88;99155.88;5047447;28;20461;-45
2024/03/11 08:13:21;;;;;;;28.55;10.07;;;;;;;6.60;82.48;99161.03;5046675;28;20048;-43
2024/03/11 08:15:48;;;;;;;22.98;8.90;;;;;;;6.62;83.61;99159.31;5050667;28;20414;-45
2024/03/11 08:18:16;;;;;;;30.17;9.50;;;;;;;6.61;82.81;99163.59;5047061;28;20048;-45
2024/03/11 08:20:43;;;;;;;37.45;11.68;;;;;;;6.62;83.85;99167.88;5049556;28;20049;-45
2024/03/11 08:23:10;;;;;;;36.60;12.15;;;;;;;6.60;83.72;99177.34;5039950;28;20131;-45
2024/03/11 08:25:37;;;;;;;27.33;9.02;;;;;;;6.63;82.43;99186.75;5047191;28;20045;-46
2024/03/11 08:28:04;;;;;;;25.13;9.68;;;;;;;6.62;83.49;99191.03;5049941;28;20080;-50
2024/03/11 08:30:31;;;;;;;22.02;9.57;;;;;;;6.62;83.32;99196.19;5048370;28;20119;-43
2024/03/11 08:32:59;;;;;;;29.92;10.55;;;;;;;6.61;82.48;99193.59;5046848;28;20052;-48
2024/03/11 08:35:27;;;;;;;29.13;10.52;;;;;;;6.61;83.26;99199.63;5053331;28;20041;-44
2024/03/11 08:37:53;;;;;;;15.68;6.18;;;;;;;6.62;83.89;99201.34;5050021;28;20060;-45
2024/03/11 08:40:22;;;;;;;31.67;10.75;;;;;;;6.63;82.37;99202.19;5040182;28;20050;-45
2024/03/11 08:42:51;;;;;;;29.70;10.68;;;;;;;6.64;82.78;99198.75;5050716;28;20126;-45
2024/03/11 08:45:18;;;;;;;27.55;10.05;;;;;;;6.61;83.59;99199.63;5044849;28;20510;-47
2024/03/11 08:47:46;;;;;;;24.77;9.45;;;;;;;6.62;82.96;99205.63;5061777;28;20052;-44
2024/03/11 08:50:17;;;;;;;27.52;10.55;;;;;;;6.63;82.60;99208.22;5045558;28;20461;-45
2024/03/11 08:52:45;;;;;;;20.95;7.90;;;;;;;6.61;83.17;99209.91;5052168;28;20051;-46
2024/03/11 08:55:13;;;;;;;26.02;8.73;;;;;;;6.64;83.92;99204.78;5045642;28;20136;-49
2024/03/11 08:57:40;;;;;;;37.78;13.55;;;;;;;6.66;83.52;99203.03;5041786;28;20049;-46
2024/03/11 09:00:11;;;;;;;30.17;10.52;;;;;;;6.66;83.16;99203.03;5042048;28;20059;-46
2024/03/11 09:02:38;;;;;;;;;;;;;;;6.64;83.69;99203.91;5034665;28;20057;-48
2024/03/11 09:05:12;;;;;;;35.05;10.18;;;;;;;6.71;83.98;99209.91;5045535;28;19947;-44
2024/03/11 09:07:40;;;;;;;27.60;10.43;;;;;;;6.73;83.44;99208.19;5036893;28;20079;-43
2024/03/11 09:10:09;;;;;;;30.00;11.90;;;;;;;6.77;82.95;99207.34;5023518;28;20103;-45
2024/03/11 09:12:37;;;;;;;29.15;10.48;;;;;;;6.76;82.81;99208.19;5041701;28;20123;-50
2024/03/11 09:15:12;;;;;;;30.70;10.43;;;;;;;6.79;83.26;99208.22;5042253;28;20045;-45
2024/03/11 09:17:42;;;;;;;31.17;10.52;;;;;;;6.78;83.53;99209.91;5042691;28;20081;-43
2024/03/11 09:20:19;;;;;;;36.42;11.05;;;;;;;6.82;83.66;99215.91;5048019;28;20791;-48
2024/03/11 09:25:24;;;;;;;40.17;14.27;;;;;;;6.82;82.93;99228.78;5065575;27;20390;-46
2024/03/11 09:28:01;;;;;;;27.85;11.40;;;;;;;6.84;83.45;99227.06;5044525;28;20069;-44
2024/03/11 09:30:32;;;;;;;22.95;11.07;;;;;;;6.81;83.42;99227.94;5043478;28;20529;-44
2024/03/11 09:33:00;;;;;;;36.65;13.27;;;;;;;6.85;82.33;99241.66;5028850;28;20052;-46
2024/03/11 09:35:28;;;;;;;39.13;14.18;;;;;;;6.86;82.89;99245.94;5023232;28;20049;-46
2024/03/11 09:37:56;;;;;;;38.58;15.98;;;;;;;6.88;82.67;99249.38;5026594;28;20049;-46
2024/03/11 09:40:26;;;;;;;40.15;15.13;;;;;;;6.88;83.11;99243.34;5025743;28;20161;-44
2024/03/11 09:42:55;;;;;;;39.10;14.38;;;;;;;6.89;84.13;99245.09;5013522;28;20054;-43
2024/03/11 09:45:27;;;;;;;28.05;13.15;;;;;;;6.89;83.29;99245.94;5020241;28;20042;-46
2024/03/11 09:47:57;;;;;;;49.30;16.77;;;;;;;6.89;83.29;99255.38;5020980;28;20045;-49
2024/03/11 09:50:30;;;;;;;36.70;13.10;;;;;;;6.87;83.64;99268.25;5016276;28;20057;-45
2024/03/11 09:53:06;;;;;;;42.15;15.05;;;;;;;6.86;83.08;99256.22;5031621;28;20060;-46
2024/03/11 09:55:34;;;;;;;34.08;14.32;;;;;;;6.87;83.88;99260.53;5015862;28;20100;-43
2024/03/11 09:58:05;;;;;;;45.17;16.52;;;;;;;6.85;83.49;99262.25;5014431;28;20499;-45
2024/03/11 10:00:33;;;;;;;33.05;11.85;;;;;;;6.84;82.73;99273.41;5017609;28;20080;-44
2024/03/11 10:03:11;;;;;;;39.22;15.00;;;;;;;6.87;82.99;99273.41;5021004;28;20053;-47
2024/03/11 10:05:39;;;;;;;37.63;14.18;;;;;;;6.87;83.74;99275.97;5020984;28;20068;-47
2024/03/11 10:08:06;;;;;;;36.47;14.38;;;;;;;6.88;82.28;99280.25;5025932;28;20057;-45
2024/03/11 10:10:34;;;;;;;37.28;12.82;;;;;;;6.91;82.33;99280.28;5017519;28;20060;-45
2024/03/11 10:13:04;;;;;;;40.55;15.07;;;;;;;6.91;83.53;99277.69;5021392;28;20050;-45
2024/03/11 10:15:33;;;;;;;41.40;15.93;;;;;;;6.90;83.02;99277.69;5015590;28;20056;-45
2024/03/11 10:18:25;;;;;;;40.53;14.05;;;;;;;6.90;83.60;99278.56;5013519;28;20060;-44
2024/03/11 10:20:57;;;;;;;33.03;12.68;;;;;;;6.93;84.12;99278.53;5024155;28;20057;-47
2024/03/11 10:23:25;;;;;;;39.40;13.90;;;;;;;6.95;83.42;99283.69;5018719;28;20065;-45
2024/03/11 10:26:17;;;;;;;44.28;17.17;;;;;;;6.96;82.75;99287.13;5021412;28;20083;-46
2024/03/11 10:28:47;;;;;;;45.25;15.80;;;;;;;6.96;83.27;99297.44;5017826;28;20132;-45
2024/03/11 10:31:24;;;;;;;52.17;18.20;;;;;;;6.99;83.39;99295.69;5018461;28;20053;-44
2024/03/11 10:33:54;;;;;;;37.42;15.10;;;;;;;7.02;83.81;99297.41;5025802;28;20111;-45
2024/03/11 10:36:24;;;;;;;41.40;15.25;;;;;;;7.06;83.50;99305.16;5009692;28;20053;-48
2024/03/11 10:38:54;;;;;;;36.38;13.82;;;;;;;7.06;83.66;99309.47;5005116;28;20100;-44
2024/03/11 10:41:22;;;;;;;45.45;15.25;;;;;;;7.09;82.09;99306.84;5004691;28;20062;-50
2024/03/11 10:43:51;;;;;;;47.13;16.17;;;;;;;7.10;83.44;99308.59;4996429;28;20050;-48
2024/03/11 10:46:20;;;;;;;47.85;17.30;;;;;;;7.13;83.34;99311.13;5004616;28;20081;-45
2024/03/11 10:48:47;;;;;;;44.90;16.75;;;;;;;7.12;83.50;99304.28;5008864;28;20049;-46
2024/03/11 10:51:19;;;;;;;33.88;13.20;;;;;;;7.13;83.02;99321.44;5017788;28;20058;-46
2024/03/11 10:53:47;;;;;;;33.50;12.02;;;;;;;7.17;83.05;99330.88;5012015;28;20451;-44
2024/03/11 10:56:19;;;;;;;39.42;14.38;;;;;;;7.18;82.99;99330.03;5006091;28;20061;-46
2024/03/11 10:58:52;;;;;;;51.22;17.95;;;;;;;7.16;82.29;99326.59;5009096;28;20419;-45
2024/03/11 11:01:30;;;;;;;51.03;17.85;;;;;;;7.16;82.75;99336.91;5003711;28;20046;-47
2024/03/11 11:04:13;;;;;;;42.45;13.73;;;;;;;7.15;83.37;99335.19;5004223;28;20529;-47
2024/03/11 11:06:48;;;;;;;28.65;10.88;;;;;;;7.12;83.62;99339.50;5006927;28;20065;-46
2024/03/11 11:09:19;;;;;;;35.60;15.32;;;;;;;7.13;83.35;99336.91;5003638;28;20061;-48
2024/03/11 11:11:55;;;;;;;34.45;14.00;;;;;;;7.11;82.44;99338.63;5004039;28;20443;-47
2024/03/11 11:14:27;;;;;;;39.42;14.95;;;;;;;7.13;82.42;99331.75;5005544;28;20049;-43
2024/03/11 11:16:57;;;;;;;31.10;12.63;;;;;;;7.13;82.94;99343.78;5009654;28;20108;-45
2024/03/11 11:19:32;;;;;;;48.55;17.15;;;;;;;7.12;83.29;99347.22;5004734;28;20521;-44
2024/03/11 11:22:01;;;;;;;43.15;14.27;;;;;;;7.10;82.38;99348.94;5004574;28;20054;-47
2024/03/11 11:24:31;;;;;;;36.10;15.07;;;;;;;7.12;82.34;99337.75;5001643;28;20050;-46
2024/03/11 11:27:05;;;;;;;40.45;14.85;;;;;;;7.12;82.66;99345.50;5004179;28;20604;-44
2024/03/11 11:29:33;;;;;;;50.78;17.52;;;;;;;7.14;82.77;99343.78;5003582;28;20054;-43
2024/03/11 11:32:11;;;;;;;32.85;12.52;;;;;;;7.12;83.25;99345.50;5005859;28;20055;-45
2024/03/11 11:39:58;;;;;;;41.80;13.77;;;;;;;7.26;82.50;99349.78;5049910;27;20386;-44
2024/03/11 11:42:41;;;;;;;35.33;12.18;;;;;;;7.24;83.40;99349.78;4996076;28;20053;-47